Time;durP1;ratioP1;P1;durP2;ratioP2;P2;SDS_P1;SDS_P2;PMS_P1;PMS_P2;Temp;Humidity;BMP_temperature;BMP_pressure;BME280_temperature;BME280_humidity;BME280_pressure;Samples;Min_cycle;Max_cycle;Signal;HPM_P1;HPM_P2
2023/04/23 00:01:29;;;;;;;5.18;2.63;;;6.50;99.90;;;;;;5079643;28;20048;-81
2023/04/23 00:03:58;;;;;;;2.25;2.05;;;6.40;99.90;;;;;;5079345;28;20080;-83
2023/04/23 00:06:25;;;;;;;1.00;0.93;;;6.40;99.90;;;;;;5076097;28;20040;-84
2023/04/23 00:08:53;;;;;;;3.45;1.77;;;6.30;99.90;;;;;;5077966;28;20044;-82
2023/04/23 00:11:22;;;;;;;1.10;0.80;;;6.20;99.90;;;;;;5078423;28;20050;-83
2023/04/23 00:13:48;;;;;;;5.22;3.15;;;6.20;99.90;;;;;;5078840;28;20040;-82
2023/04/23 00:16:14;;;;;;;1.80;1.52;;;6.10;99.90;;;;;;5064900;28;20048;-81
2023/04/23 00:18:40;;;;;;;0.85;0.85;;;6.10;99.90;;;;;;5068242;28;21140;-81
2023/04/23 00:21:08;;;;;;;1.38;1.27;;;6.10;99.90;;;;;;5078062;28;20088;-82
2023/04/23 00:23:33;;;;;;;1.30;1.20;;;6.20;99.90;;;;;;5077446;28;20113;-82
2023/04/23 00:25:59;;;;;;;1.60;1.13;;;6.20;99.90;;;;;;5066311;28;20041;-81
2023/04/23 00:28:25;;;;;;;3.25;1.45;;;6.30;99.90;;;;;;5058195;28;20045;-81
2023/04/23 00:30:51;;;;;;;3.05;2.50;;;6.60;99.90;;;;;;5056855;28;20129;-83
2023/04/23 00:33:16;;;;;;;1.70;1.60;;;6.40;99.90;;;;;;5058660;28;20052;-83
2023/04/23 00:35:42;;;;;;;2.45;1.58;;;6.50;99.90;;;;;;5070024;28;20045;-82
2023/04/23 00:38:08;;;;;;;1.92;1.42;;;6.60;99.90;;;;;;5065952;28;20493;-82
2023/04/23 00:40:34;;;;;;;0.60;0.60;;;6.60;99.90;;;;;;5076135;28;20086;-81
2023/04/23 00:43:00;;;;;;;1.95;0.75;;;6.70;99.90;;;;;;5076316;28;20044;-81
2023/04/23 00:45:26;;;;;;;2.35;1.17;;;6.70;99.90;;;;;;5072437;28;20063;-82
2023/04/23 00:47:53;;;;;;;1.85;1.67;;;6.80;99.90;;;;;;5059880;28;20037;-82
2023/04/23 00:50:19;;;;;;;4.00;2.03;;;6.90;99.90;;;;;;5058498;28;20060;-84
2023/04/23 00:52:48;;;;;;;2.38;1.92;;;7.80;99.90;;;;;;5076744;28;20123;-81
2023/04/23 00:55:14;;;;;;;1.00;0.85;;;7.30;99.90;;;;;;5089441;28;20024;-82
2023/04/23 00:57:41;;;;;;;0.90;0.90;;;8.00;99.90;;;;;;5077877;28;20056;-82
2023/04/23 01:00:08;;;;;;;1.95;1.70;;;6.90;99.90;;;;;;5069244;28;20043;-81
2023/04/23 01:02:35;;;;;;;2.05;1.63;;;6.90;99.90;;;;;;5070783;28;20037;-81
2023/04/23 01:05:03;;;;;;;1.20;1.10;;;6.90;99.90;;;;;;5069448;28;20037;-81
2023/04/23 01:07:33;;;;;;;0.70;0.70;;;7.00;99.90;;;;;;5068445;28;20041;-82
2023/04/23 01:09:59;;;;;;;1.10;1.05;;;7.00;99.90;;;;;;5056488;28;20417;-81
2023/04/23 01:12:25;;;;;;;2.40;1.95;;;7.00;99.90;;;;;;5057377;28;20056;-82
2023/04/23 01:14:51;;;;;;;4.32;1.60;;;7.00;99.90;;;;;;5057187;28;20037;-81
2023/04/23 01:17:17;;;;;;;2.08;1.67;;;7.10;99.90;;;;;;5059287;28;20037;-82
2023/04/23 01:19:43;;;;;;;3.28;2.08;;;6.90;99.90;;;;;;5055906;28;20203;-81
2023/04/23 01:22:10;;;;;;;1.95;1.75;;;6.90;99.90;;;;;;5056367;28;20068;-82
2023/04/23 01:24:38;;;;;;;2.10;1.58;;;6.90;99.90;;;;;;5056458;28;20044;-82
2023/04/23 01:27:03;;;;;;;2.38;1.42;;;6.80;99.90;;;;;;5056441;28;20096;-81
2023/04/23 01:29:30;;;;;;;1.40;1.23;;;6.80;99.90;;;;;;5055020;28;20433;-82
2023/04/23 01:31:56;;;;;;;2.53;1.95;;;6.70;99.90;;;;;;5056076;28;20060;-82
2023/04/23 01:34:22;;;;;;;2.97;1.30;;;7.60;99.90;;;;;;5055721;28;20045;-82
2023/04/23 01:36:48;;;;;;;1.13;1.02;;;6.70;99.90;;;;;;5068106;28;20139;-82
2023/04/23 01:39:14;;;;;;;1.13;0.65;;;6.70;99.90;;;;;;5057318;28;20051;-82
2023/04/23 01:41:40;;;;;;;1.48;1.38;;;7.10;99.90;;;;;;5057295;28;20462;-82
2023/04/23 01:44:06;;;;;;;2.10;1.77;;;6.70;99.90;;;;;;5056506;28;20050;-81
2023/04/23 01:46:32;;;;;;;3.78;3.40;;;6.70;99.90;;;;;;5057489;28;20474;-81
2023/04/23 01:48:58;;;;;;;3.65;2.55;;;6.60;99.90;;;;;;5057138;28;20175;-82
2023/04/23 01:51:24;;;;;;;3.50;2.75;;;6.50;99.90;;;;;;5057806;28;20460;-83
2023/04/23 01:53:50;;;;;;;0.40;0.40;;;6.50;99.90;;;;;;5056444;28;20048;-82
2023/04/23 01:56:21;;;;;;;3.53;2.30;;;6.40;99.90;;;;;;5060109;28;20510;-83
2023/04/23 01:58:47;;;;;;;0.85;0.85;;;6.80;99.90;;;;;;5076069;28;20060;-81
2023/04/23 02:01:13;;;;;;;1.52;1.42;;;6.70;99.90;;;;;;5076386;28;20746;-82
2023/04/23 02:03:38;;;;;;;10.45;1.42;;;6.30;99.90;;;;;;5076538;28;20055;-82
2023/04/23 02:06:04;;;;;;;3.10;2.28;;;6.30;99.90;;;;;;5076366;28;20044;-83
2023/04/23 02:08:30;;;;;;;9.43;2.58;;;6.20;99.90;;;;;;5075946;28;20040;-81
2023/04/23 02:10:56;;;;;;;2.50;1.98;;;6.20;99.90;;;;;;5074641;28;20041;-82
2023/04/23 02:13:22;;;;;;;0.22;0.22;;;6.10;99.90;;;;;;5075777;28;20032;-82
2023/04/23 02:15:48;;;;;;;1.40;1.30;;;6.10;99.90;;;;;;5075120;28;20071;-82
2023/04/23 02:18:13;;;;;;;1.05;1.00;;;6.10;99.90;;;;;;5056709;28;20041;-82
2023/04/23 02:20:40;;;;;;;1.52;1.42;;;6.00;99.90;;;;;;5055248;28;20055;-81
2023/04/23 02:23:07;;;;;;;2.90;2.55;;;5.80;99.90;;;;;;5054150;28;20048;-81
2023/04/23 02:25:33;;;;;;;1.80;1.67;;;5.80;99.90;;;;;;5055293;28;20422;-82
2023/04/23 02:28:04;;;;;;;1.40;1.30;;;5.70;99.90;;;;;;5060868;28;20041;-81
2023/04/23 02:30:29;;;;;;;8.32;2.97;;;5.70;99.90;;;;;;5053312;28;20074;-83
2023/04/23 02:32:55;;;;;;;2.42;1.27;;;5.70;99.90;;;;;;5075121;28;20040;-82
2023/04/23 02:35:22;;;;;;;0.85;0.85;;;5.70;99.90;;;;;;5075263;28;20071;-82
2023/04/23 02:37:47;;;;;;;2.10;1.55;;;5.70;99.90;;;;;;5075817;28;20056;-81
2023/04/23 02:40:13;;;;;;;2.58;1.77;;;5.60;99.90;;;;;;5075168;28;20051;-82
2023/04/23 02:42:39;;;;;;;2.08;1.92;;;5.60;99.90;;;;;;5075067;28;20045;-82
2023/04/23 02:45:05;;;;;;;2.42;1.90;;;5.50;99.90;;;;;;5075485;28;20044;-82
2023/04/23 02:47:34;;;;;;;8.57;2.90;;;5.40;99.90;;;;;;5074699;28;20055;-81
2023/04/23 02:50:04;;;;;;;2.58;2.35;;;5.30;99.90;;;;;;5081295;28;20051;-82
2023/04/23 02:52:30;;;;;;;1.83;1.70;;;5.40;99.90;;;;;;5079594;28;20048;-81
2023/04/23 02:54:55;;;;;;;3.58;2.70;;;5.30;99.90;;;;;;5080319;28;20083;-82
2023/04/23 02:57:21;;;;;;;3.60;2.75;;;5.30;99.90;;;;;;5080325;28;20033;-81
2023/04/23 02:59:47;;;;;;;5.78;4.15;;;5.20;99.90;;;;;;5080975;28;20052;-82
2023/04/23 03:02:13;;;;;;;2.20;2.00;;;5.10;99.90;;;;;;5080921;28;20041;-82
2023/04/23 03:04:39;;;;;;;3.08;2.05;;;5.10;99.90;;;;;;5081129;28;20078;-82
2023/04/23 03:07:05;;;;;;;7.63;4.30;;;5.10;99.90;;;;;;5084960;28;20232;-81
2023/04/23 03:09:30;;;;;;;2.75;2.50;;;5.20;99.90;;;;;;5085138;28;20048;-82
2023/04/23 03:11:56;;;;;;;1.40;1.30;;;5.20;99.90;;;;;;5064423;28;20060;-82
2023/04/23 03:14:22;;;;;;;5.03;2.10;;;5.20;99.90;;;;;;5081087;28;20040;-81
2023/04/23 03:16:47;;;;;;;3.30;3.10;;;5.20;99.90;;;;;;5078128;28;20048;-81
2023/04/23 03:19:14;;;;;;;1.48;1.38;;;5.60;99.90;;;;;;5077933;28;20115;-82
2023/04/23 03:21:39;;;;;;;3.13;2.72;;;5.20;99.90;;;;;;5078727;28;20072;-82
2023/04/23 03:24:05;;;;;;;1.73;1.35;;;5.10;99.90;;;;;;5078570;28;20056;-82
2023/04/23 03:26:34;;;;;;;4.13;2.97;;;5.10;99.90;;;;;;5076113;28;20048;-82
2023/04/23 03:28:59;;;;;;;3.25;2.47;;;5.10;99.90;;;;;;5058994;28;20056;-81
2023/04/23 03:31:25;;;;;;;1.05;0.95;;;5.00;99.90;;;;;;5059400;28;20044;-82
2023/04/23 03:33:51;;;;;;;0.63;0.63;;;4.90;99.90;;;;;;5059970;28;20360;-82
2023/04/23 03:36:17;;;;;;;5.25;3.78;;;5.00;99.90;;;;;;5063762;28;20045;-82
2023/04/23 03:38:43;;;;;;;2.08;1.98;;;4.90;99.90;;;;;;5078952;28;20055;-82
2023/04/23 03:41:08;;;;;;;4.10;2.88;;;4.90;99.90;;;;;;5078385;28;20084;-82
2023/04/23 03:43:34;;;;;;;6.50;2.25;;;4.90;99.90;;;;;;5079918;28;20033;-81
2023/04/23 03:46:00;;;;;;;0.75;0.75;;;4.80;99.90;;;;;;5078719;28;20078;-82
2023/04/23 03:48:25;;;;;;;3.40;2.33;;;4.70;99.90;;;;;;5078262;28;20588;-82
2023/04/23 03:50:51;;;;;;;0.38;0.38;;;4.70;99.90;;;;;;5079661;28;20055;-81
2023/04/23 03:53:17;;;;;;;4.50;1.95;;;5.20;99.90;;;;;;5078629;28;20058;-81
2023/04/23 03:55:43;;;;;;;2.08;1.67;;;4.60;99.90;;;;;;5080321;28;20040;-81
2023/04/23 03:58:09;;;;;;;3.25;2.22;;;3.90;99.90;;;;;;5060533;28;20037;-81
2023/04/23 04:00:35;;;;;;;2.05;1.88;;;4.70;99.90;;;;;;5064362;28;20050;-81
2023/04/23 04:03:04;;;;;;;0.98;0.95;;;4.70;99.90;;;;;;5054469;28;20078;-82
2023/04/23 04:05:29;;;;;;;2.15;1.83;;;4.70;99.90;;;;;;5071681;28;20029;-83
2023/04/23 04:07:55;;;;;;;3.50;2.50;;;4.80;99.90;;;;;;5088312;28;20074;-81
2023/04/23 04:10:21;;;;;;;3.13;2.78;;;4.90;99.90;;;;;;5091805;28;20043;-81
2023/04/23 04:12:47;;;;;;;2.50;2.30;;;5.10;99.90;;;;;;5091059;28;20044;-82
2023/04/23 04:15:15;;;;;;;2.25;1.75;;;5.20;99.90;;;;;;5083186;28;20040;-83
2023/04/23 04:17:41;;;;;;;4.10;3.28;;;5.30;99.90;;;;;;5065754;28;20036;-82
2023/04/23 04:20:07;;;;;;;4.07;3.53;;;6.40;99.90;;;;;;5074698;28;20050;-82
2023/04/23 04:22:33;;;;;;;2.63;2.42;;;5.40;99.90;;;;;;5076318;28;20052;-82
2023/04/23 04:24:58;;;;;;;2.88;2.70;;;5.50;99.90;;;;;;5071429;28;20041;-81
2023/04/23 04:27:24;;;;;;;4.82;4.28;;;5.60;99.90;;;;;;5067964;28;20092;-82
2023/04/23 04:29:50;;;;;;;9.25;3.90;;;5.70;99.90;;;;;;5062719;28;20481;-82
2023/04/23 04:32:16;;;;;;;7.60;4.32;;;6.40;99.90;;;;;;5065831;28;20048;-82
2023/04/23 04:34:42;;;;;;;4.43;3.33;;;6.00;99.90;;;;;;5075306;28;20072;-82
2023/04/23 04:37:09;;;;;;;3.65;3.35;;;6.10;99.90;;;;;;5074823;28;20067;-81
2023/04/23 04:39:35;;;;;;;5.32;3.50;;;6.20;99.90;;;;;;5076420;28;20056;-82
2023/04/23 04:42:06;;;;;;;7.80;3.45;;;6.30;99.90;;;;;;5076788;28;20567;-82
2023/04/23 04:44:36;;;;;;;5.45;4.35;;;6.40;99.90;;;;;;5076734;28;20070;-82
2023/04/23 04:47:01;;;;;;;6.00;4.28;;;6.40;99.90;;;;;;5068356;28;20053;-83
2023/04/23 04:49:27;;;;;;;3.88;3.08;;;6.50;99.90;;;;;;5055915;28;20383;-82
2023/04/23 04:51:53;;;;;;;6.97;4.20;;;6.50;99.90;;;;;;5056886;28;20045;-82
2023/04/23 04:54:21;;;;;;;5.78;4.60;;;6.60;99.90;;;;;;5056509;28;20155;-82
2023/04/23 04:56:47;;;;;;;3.33;3.03;;;6.70;99.90;;;;;;5062828;28;20036;-82
2023/04/23 04:59:13;;;;;;;6.35;5.13;;;6.70;99.90;;;;;;5074625;28;20392;-81
2023/04/23 05:01:39;;;;;;;2.38;2.17;;;6.80;99.90;;;;;;5077011;28;20048;-83
2023/04/23 05:04:04;;;;;;;3.45;2.35;;;6.80;99.90;;;;;;5076662;28;20048;-82
2023/04/23 05:06:31;;;;;;;4.13;2.92;;;6.90;99.90;;;;;;5075006;28;20059;-82
2023/04/23 05:08:56;;;;;;;2.03;1.88;;;7.00;99.90;;;;;;5062167;28;20101;-81
2023/04/23 05:11:22;;;;;;;5.70;4.90;;;7.20;99.90;;;;;;5056919;28;20072;-82
2023/04/23 05:13:48;;;;;;;6.47;4.00;;;7.10;99.90;;;;;;5056929;28;20151;-82
2023/04/23 05:16:14;;;;;;;4.00;3.05;;;7.30;99.90;;;;;;5057198;28;20040;-82
2023/04/23 05:18:41;;;;;;;7.88;5.20;;;7.40;99.90;;;;;;5076168;28;20064;-83
2023/04/23 05:21:07;;;;;;;13.65;3.78;;;7.50;99.90;;;;;;5075296;28;20106;-81
2023/04/23 05:23:35;;;;;;;4.70;4.30;;;7.50;99.90;;;;;;5076321;28;20705;-81
2023/04/23 05:26:02;;;;;;;9.70;5.68;;;7.60;99.90;;;;;;5077320;28;20110;-83
2023/04/23 05:28:28;;;;;;;6.55;4.07;;;7.70;99.90;;;;;;5058835;28;20060;-83
2023/04/23 05:30:55;;;;;;;4.63;4.20;;;7.80;99.90;;;;;;5056170;28;20088;-82
2023/04/23 05:33:21;;;;;;;3.03;2.25;;;7.90;99.90;;;;;;5074292;28;20223;-82
2023/04/23 05:35:46;;;;;;;3.17;2.83;;;8.00;99.90;;;;;;5077561;28;20063;-81
2023/04/23 05:38:12;;;;;;;4.00;3.63;;;8.10;99.90;;;;;;5077620;28;20055;-82
2023/04/23 05:40:38;;;;;;;10.38;4.57;;;8.20;99.90;;;;;;5060673;28;20493;-82
2023/04/23 05:43:05;;;;;;;7.75;5.32;;;8.30;99.90;;;;;;5055054;28;20052;-83
2023/04/23 05:45:30;;;;;;;19.15;6.10;;;7.30;99.90;;;;;;5071720;28;20055;-82
2023/04/23 05:47:56;;;;;;;4.95;4.55;;;8.30;99.90;;;;;;5071305;28;20046;-81
2023/04/23 05:50:22;;;;;;;8.77;4.47;;;8.20;99.90;;;;;;5071248;28;20047;-81
2023/04/23 05:52:47;;;;;;;7.93;5.03;;;8.20;99.90;;;;;;5069518;28;20100;-82
2023/04/23 05:55:17;;;;;;;6.32;5.82;;;8.20;99.90;;;;;;5051902;28;20036;-81
2023/04/23 05:57:43;;;;;;;6.25;4.88;;;8.20;99.90;;;;;;5066713;28;20044;-82
2023/04/23 06:00:10;;;;;;;7.68;5.03;;;8.30;99.90;;;;;;5071944;28;20052;-82
2023/04/23 06:02:35;;;;;;;17.17;7.18;;;8.30;99.90;;;;;;5072255;28;20139;-81
2023/04/23 06:05:04;;;;;;;9.27;7.60;;;8.40;99.90;;;;;;5070190;28;20064;-81
2023/04/23 06:07:31;;;;;;;6.57;5.32;;;8.50;99.90;;;;;;5071293;28;20048;-81
2023/04/23 06:09:56;;;;;;;9.45;5.93;;;8.60;99.90;;;;;;5072993;28;20063;-81
2023/04/23 06:12:22;;;;;;;6.63;4.82;;;8.50;99.90;;;;;;5071496;28;20123;-82
2023/04/23 06:14:48;;;;;;;7.70;5.93;;;8.60;99.90;;;;;;5071838;28;20143;-81
2023/04/23 06:17:13;;;;;;;8.82;4.78;;;8.80;99.90;;;;;;5052740;28;20041;-82
2023/04/23 06:19:40;;;;;;;12.98;6.65;;;9.00;99.90;;;;;;5051675;28;20059;-82
2023/04/23 06:22:06;;;;;;;14.05;4.47;;;9.00;99.90;;;;;;5054215;28;20078;-82
2023/04/23 06:24:35;;;;;;;6.90;5.18;;;9.00;99.90;;;;;;5070546;28;20113;-81
2023/04/23 06:27:01;;;;;;;7.95;5.35;;;9.10;99.90;;;;;;5070656;28;20097;-81
2023/04/23 06:29:27;;;;;;;5.63;4.63;;;9.30;99.90;;;;;;5072429;28;20045;-81
2023/04/23 06:32:00;;;;;;;6.10;4.65;;;9.70;99.90;;;;;;5055444;28;20140;-81
2023/04/23 06:34:26;;;;;;;6.55;4.40;;;10.10;99.90;;;;;;5051831;28;20072;-81
2023/04/23 06:36:51;;;;;;;13.02;6.78;;;10.40;99.90;;;;;;5054906;28;20410;-81
2023/04/23 06:39:17;;;;;;;7.97;4.88;;;11.00;99.90;;;;;;5072212;28;20044;-81
2023/04/23 06:41:43;;;;;;;4.25;3.85;;;11.00;99.90;;;;;;5079054;28;20080;-81
2023/04/23 06:44:08;;;;;;;5.80;3.75;;;11.00;99.90;;;;;;5077596;28;20546;-81
2023/04/23 06:46:34;;;;;;;6.00;3.50;;;11.40;99.90;;;;;;5077672;28;20048;-81
2023/04/23 06:49:00;;;;;;;5.90;4.25;;;11.60;99.90;;;;;;5058172;28;20055;-81
2023/04/23 06:51:30;;;;;;;16.15;4.93;;;11.80;1.00;;;;;;5058371;28;20041;-82
2023/04/23 06:53:57;;;;;;;5.70;3.97;;;12.10;1.00;;;;;;5059070;28;20123;-82
2023/04/23 06:56:23;;;;;;;8.25;4.57;;;12.70;99.90;;;;;;5058913;28;20064;-82
2023/04/23 06:58:49;;;;;;;6.80;3.63;;;13.10;6.00;;;;;;5059888;28;20536;-82
2023/04/23 07:01:15;;;;;;;4.50;3.63;;;13.40;72.20;;;;;;5062084;28;20044;-82
2023/04/23 07:03:43;;;;;;;2.78;2.33;;;13.70;99.90;;;;;;5085638;28;20060;-82
2023/04/23 07:06:09;;;;;;;6.03;4.25;;;14.00;1.00;;;;;;5087304;28;20040;-82
2023/04/23 07:08:35;;;;;;;4.00;3.00;;;14.70;99.90;;;;;;5080062;28;20043;-82
2023/04/23 07:11:04;;;;;;;2.85;2.63;;;14.30;99.90;;;;;;5075378;28;20209;-82
2023/04/23 07:13:30;;;;;;;7.57;3.67;;;14.10;99.90;;;;;;5074926;28;20072;-82
2023/04/23 07:15:55;;;;;;;13.25;2.88;;;14.10;99.90;;;;;;5075574;28;20045;-82
2023/04/23 07:18:21;;;;;;;5.38;2.45;;;14.60;99.90;;;;;;5075098;28;20045;-82
2023/04/23 07:20:46;;;;;;;4.65;3.03;;;14.50;1.00;;;;;;5073348;28;20028;-82
2023/04/23 07:23:12;;;;;;;6.57;3.33;;;14.70;1.00;;;;;;5071821;28;20409;-82
2023/04/23 07:25:38;;;;;;;9.25;4.10;;;14.70;62.70;;;;;;5075959;28;20082;-81
2023/04/23 07:28:05;;;;;;;3.00;1.50;;;15.00;29.40;;;;;;5078091;28;20116;-82
2023/04/23 07:30:34;;;;;;;4.20;3.17;;;15.10;99.90;;;;;;5078139;28;20048;-82
2023/04/23 07:32:59;;;;;;;4.03;2.40;;;15.20;99.90;;;;;;5059476;28;20037;-82
2023/04/23 07:35:25;;;;;;;2.38;1.85;;;15.60;99.90;;;;;;5057351;28;20118;-82
2023/04/23 07:37:52;;;;;;;2.80;2.45;;;15.60;99.90;;;;;;5074938;28;20049;-82
2023/04/23 07:40:21;;;;;;;5.47;2.03;;;15.40;99.90;;;;;;5076483;28;20051;-82
2023/04/23 07:42:47;;;;;;;6.28;3.67;;;16.60;99.90;;;;;;5076844;28;20066;-83
2023/04/23 07:45:13;;;;;;;4.18;2.35;;;15.50;99.90;;;;;;5075441;28;20044;-82
2023/04/23 07:47:40;;;;;;;5.63;3.15;;;15.40;99.90;;;;;;5060331;28;20497;-82
2023/04/23 07:50:06;;;;;;;4.60;2.55;;;15.50;99.90;;;;;;5056525;28;20048;-81
2023/04/23 07:52:32;;;;;;;8.95;4.43;;;15.70;99.90;;;;;;5052094;28;20051;-82
2023/04/23 07:55:00;;;;;;;4.22;2.20;;;15.60;99.90;;;;;;5052653;28;20032;-82
2023/04/23 07:57:25;;;;;;;4.90;2.40;;;15.80;99.90;;;;;;5063356;28;20052;-82
2023/04/23 07:59:51;;;;;;;3.30;2.08;;;16.10;99.90;;;;;;5072083;28;20040;-82
2023/04/23 08:02:22;;;;;;;4.20;3.15;;;16.50;99.90;;;;;;5071150;28;20128;-81
2023/04/23 08:04:48;;;;;;;3.35;2.63;;;16.10;99.90;;;;;;5072592;28;20088;-82
2023/04/23 08:07:13;;;;;;;6.18;3.63;;;15.90;99.90;;;;;;5072058;28;20052;-82
2023/04/23 08:09:39;;;;;;;3.58;2.58;;;16.30;99.90;;;;;;5057332;28;20469;-82
2023/04/23 08:12:08;;;;;;;5.00;3.90;;;17.80;99.90;;;;;;5050666;28;20080;-82
2023/04/23 08:14:33;;;;;;;9.85;3.25;;;17.90;93.70;;;;;;5051426;28;20510;-81
2023/04/23 08:16:59;;;;;;;8.57;5.30;;;18.40;18.80;;;;;;5052322;28;20037;-82
2023/04/23 08:19:30;;;;;;;3.08;1.70;;;18.90;32.40;;;;;;5050052;28;20071;-82
2023/04/23 08:21:56;;;;;;;2.10;1.88;;;19.00;1.00;;;;;;5051853;28;20057;-81
2023/04/23 08:24:21;;;;;;;4.07;3.40;;;19.80;1.00;;;;;;5056624;28;20071;-81
2023/04/23 08:26:47;;;;;;;3.20;2.83;;;19.40;1.00;;;;;;5059496;28;20119;-83
2023/04/23 08:29:16;;;;;;;2.42;1.85;;;19.60;1.00;;;;;;5052299;28;20144;-83
2023/04/23 08:31:57;;;;;;;4.03;1.98;;;19.80;1.00;;;;;;5066221;28;20053;-82
2023/04/23 08:34:23;;;;;;;2.08;1.27;;;20.00;1.00;;;;;;5052387;28;20041;-83
2023/04/23 08:36:48;;;;;;;2.13;1.77;;;20.00;1.00;;;;;;5052454;28;20076;-83
2023/04/23 08:39:14;;;;;;;1.85;1.60;;;19.40;1.00;;;;;;5051938;28;20041;-82
2023/04/23 08:41:41;;;;;;;6.53;1.30;;;19.30;1.00;;;;;;5052159;28;20052;-82
2023/04/23 08:44:10;;;;;;;0.85;0.82;;;19.30;1.00;;;;;;5071105;28;20059;-82
2023/04/23 08:46:40;;;;;;;4.07;1.52;;;19.70;1.00;;;;;;5070327;28;20121;-81
2023/04/23 08:49:07;;;;;;;1.33;1.20;;;19.80;1.00;;;;;;5071742;28;20048;-82
2023/04/23 08:51:36;;;;;;;9.43;2.50;;;19.50;1.00;;;;;;5072418;28;20059;-82
2023/04/23 08:54:04;;;;;;;3.28;2.15;;;19.70;1.00;;;;;;5069368;28;20123;-82
2023/04/23 08:56:31;;;;;;;1.60;1.50;;;19.90;1.00;;;;;;5049804;28;20048;-82
2023/04/23 08:58:57;;;;;;;1.83;1.63;;;20.10;1.00;;;;;;5051084;28;20084;-82
2023/04/23 09:01:24;;;;;;;3.75;2.95;;;20.40;1.00;;;;;;5051177;28;20141;-82
2023/04/23 09:03:51;;;;;;;1.83;1.42;;;20.40;1.00;;;;;;5050850;28;20048;-82
2023/04/23 09:06:18;;;;;;;1.08;0.90;;;20.60;1.00;;;;;;5051924;28;20842;-82
2023/04/23 09:08:48;;;;;;;1.50;1.40;;;20.60;1.00;;;;;;5070575;28;20417;-82
2023/04/23 09:11:15;;;;;;;11.07;2.72;;;20.80;1.00;;;;;;5072564;28;20048;-81
2023/04/23 09:13:41;;;;;;;0.77;0.75;;;20.60;1.00;;;;;;5071606;28;20051;-82
2023/04/23 09:16:07;;;;;;;2.72;1.38;;;20.80;1.00;;;;;;5071560;28;20436;-82
2023/04/23 09:18:33;;;;;;;3.53;1.98;;;20.60;1.00;;;;;;5069643;28;20183;-81
2023/04/23 09:21:02;;;;;;;2.00;1.80;;;20.90;1.00;;;;;;5072152;28;20095;-82
2023/04/23 09:23:30;;;;;;;1.20;1.08;;;21.30;1.00;;;;;;5071358;28;20056;-82
2023/04/23 09:25:56;;;;;;;2.35;1.60;;;21.50;1.00;;;;;;5072313;28;20059;-81
2023/04/23 09:28:34;;;;;;;8.93;3.50;;;21.00;1.00;;;;;;5071631;28;20049;-81
2023/04/23 09:30:59;;;;;;;1.05;0.95;;;20.30;1.00;;;;;;5071758;28;20459;-81
2023/04/23 09:33:27;;;;;;;1.70;0.95;;;19.70;99.90;;;;;;5053140;28;20086;-81
2023/04/23 09:35:53;;;;;;;2.55;0.63;;;19.00;99.90;;;;;;5072234;28;20048;-82
2023/04/23 09:38:19;;;;;;;1.02;0.82;;;18.40;99.90;;;;;;5051900;28;20106;-82
2023/04/23 09:40:45;;;;;;;0.88;0.70;;;18.00;99.90;;;;;;5051290;28;20128;-81
2023/04/23 09:43:10;;;;;;;1.48;1.30;;;17.80;99.90;;;;;;5049435;28;20795;-81
2023/04/23 09:45:36;;;;;;;3.38;2.28;;;17.70;99.90;;;;;;5044929;28;20084;-81
2023/04/23 09:48:02;;;;;;;5.93;1.70;;;17.90;99.90;;;;;;5047223;28;20052;-82
2023/04/23 09:50:35;;;;;;;0.93;0.52;;;17.90;99.90;;;;;;5053899;28;20058;-81
2023/04/23 09:53:02;;;;;;;1.85;1.48;;;17.80;1.00;;;;;;5067510;28;20056;-81
2023/04/23 09:55:37;;;;;;;2.75;1.40;;;19.40;1.00;;;;;;5051977;28;20052;-81
2023/04/23 09:58:10;;;;;;;1.95;1.15;;;18.90;1.00;;;;;;5047092;28;20045;-81
2023/04/23 10:00:38;;;;;;;2.47;0.88;;;19.30;1.00;;;;;;5047523;28;20492;-82
2023/04/23 10:03:06;;;;;;;0.75;0.60;;;19.70;1.00;;;;;;5047719;28;20053;-82
2023/04/23 10:05:43;;;;;;;1.50;0.43;;;20.60;1.00;;;;;;5046821;28;20068;-82
2023/04/23 10:08:09;;;;;;;2.83;0.90;;;19.50;99.90;;;;;;5046857;28;20117;-81
2023/04/23 10:10:37;;;;;;;0.43;0.38;;;20.20;99.90;;;;;;5046438;28;20048;-81
2023/04/23 10:13:03;;;;;;;0.38;0.38;;;19.90;99.90;;;;;;5047024;28;20090;-81
2023/04/23 10:15:29;;;;;;;3.70;1.40;;;20.40;1.00;;;;;;5045686;28;20041;-81
2023/04/23 10:17:55;;;;;;;1.65;0.52;;;20.60;1.00;;;;;;5065295;28;20041;-81
2023/04/23 10:20:22;;;;;;;1.65;0.52;;;20.30;99.90;;;;;;5065230;28;20096;-82
2023/04/23 10:22:48;;;;;;;1.17;0.95;;;20.00;99.90;;;;;;5048200;28;20064;-82
2023/04/23 10:25:14;;;;;;;0.38;0.38;;;19.70;99.90;;;;;;5065627;28;20120;-81
2023/04/23 10:27:42;;;;;;;1.95;0.73;;;19.40;99.90;;;;;;5065647;28;20048;-81
2023/04/23 10:30:10;;;;;;;0.82;0.70;;;19.50;99.90;;;;;;5066380;28;20123;-81
2023/04/23 10:32:37;;;;;;;0.43;0.20;;;19.40;99.90;;;;;;5061318;28;20065;-81
2023/04/23 10:35:05;;;;;;;3.45;1.48;;;20.20;99.90;;;;;;5070064;28;20114;-81
2023/04/23 10:37:35;;;;;;;0.68;0.52;;;19.50;99.90;;;;;;5083252;28;20024;-81
2023/04/23 10:40:10;;;;;;;0.10;0.10;;;19.60;99.90;;;;;;5089262;28;20040;-81
2023/04/23 10:42:37;;;;;;;1.03;0.40;;;18.70;99.90;;;;;;5081520;28;20052;-81
2023/04/23 10:45:11;;;;;;;0.13;0.10;;;18.40;99.90;;;;;;5069341;28;20149;-80
2023/04/23 10:47:37;;;;;;;0.05;0.05;;;18.10;99.90;;;;;;5089220;28;20024;-80
2023/04/23 10:50:21;;;;;;;1.45;1.20;;;17.90;99.90;;;;;;5078680;28;20437;-82
2023/04/23 10:52:50;;;;;;;2.28;1.00;;;18.50;99.90;;;;;;5071884;28;20763;-80
2023/04/23 10:55:31;;;;;;;0.32;0.32;;;17.90;99.90;;;;;;5070955;28;20068;-80
2023/04/23 10:58:06;;;;;;;0.65;0.47;;;18.40;99.90;;;;;;5071637;28;20036;-80
2023/04/23 11:00:44;;;;;;;0.05;0.05;;;18.20;99.90;;;;;;5069639;28;20049;-80
2023/04/23 11:03:50;;;;;;;0.50;0.35;;;18.60;99.90;;;;;;5069797;28;20057;-81
2023/04/23 11:06:47;;;;;;;0.33;0.33;;;18.90;99.90;;;;;;5068227;28;20052;-81
2023/04/23 11:09:47;;;;;;;0.30;0.30;;;18.50;99.90;;;;;;5067739;28;20070;-80
2023/04/23 11:12:25;;;;;;;0.77;0.60;;;18.70;99.90;;;;;;5069279;28;20048;-80
2023/04/23 11:14:53;;;;;;;0.00;0.00;;;18.60;99.90;;;;;;5061613;28;20053;-81
2023/04/23 11:17:31;;;;;;;0.45;0.45;;;18.80;99.90;;;;;;5051773;28;20045;-81
2023/04/23 11:20:22;;;;;;;2.10;1.00;;;18.90;99.90;;;;;;5050824;28;20572;-79
2023/04/23 11:22:50;;;;;;;0.10;0.10;;;19.00;99.90;;;;;;5058222;28;20502;-81
2023/04/23 11:25:24;;;;;;;0.30;0.30;;;19.40;99.90;;;;;;5066093;28;20048;-81
2023/04/23 11:27:52;;;;;;;2.60;1.00;;;19.90;99.90;;;;;;5074640;28;20037;-80
2023/04/23 11:30:28;;;;;;;0.10;0.10;;;20.00;99.90;;;;;;5073316;28;20053;-81
2023/04/23 11:32:56;;;;;;;0.00;0.00;;;19.90;99.90;;;;;;5058941;28;20045;-80
2023/04/23 11:35:27;;;;;;;0.10;0.10;;;20.00;99.90;;;;;;5072941;28;20102;-80
2023/04/23 11:37:53;;;;;;;0.10;0.10;;;20.10;99.90;;;;;;5074286;28;20044;-81
2023/04/23 11:40:21;;;;;;;0.30;0.30;;;20.00;99.90;;;;;;5073628;28;20052;-80
2023/04/23 11:42:53;;;;;;;0.30;0.30;;;19.90;99.90;;;;;;5069277;28;20047;-81
2023/04/23 11:45:27;;;;;;;0.55;0.28;;;20.80;99.90;;;;;;5065355;28;20052;-81
2023/04/23 11:47:55;;;;;;;0.38;0.17;;;22.20;99.90;;;;;;5073300;28;20063;-80
2023/04/23 11:50:26;;;;;;;0.00;0.00;;;21.20;99.90;;;;;;5064791;28;20037;-81
2023/04/23 11:52:53;;;;;;;0.57;0.28;;;20.80;99.90;;;;;;5053700;28;20182;-80
2023/04/23 11:55:22;;;;;;;0.03;0.03;;;20.80;99.90;;;;;;5054819;28;20091;-80
2023/04/23 11:57:50;;;;;;;0.65;0.43;;;20.30;99.90;;;;;;5052412;28;20110;-81
2023/04/23 12:00:24;;;;;;;0.55;0.32;;;20.30;99.90;;;;;;5054334;28;20049;-81
2023/04/23 12:02:53;;;;;;;0.00;0.00;;;21.30;99.90;;;;;;5054074;28;20049;-80
2023/04/23 12:05:26;;;;;;;0.30;0.15;;;22.00;99.90;;;;;;5063154;28;20926;-82
2023/04/23 12:07:52;;;;;;;0.45;0.30;;;21.80;99.90;;;;;;5072663;28;20052;-81
2023/04/23 12:10:23;;;;;;;0.90;0.40;;;21.80;99.90;;;;;;5074284;28;20056;-80
2023/04/23 12:12:51;;;;;;;0.55;0.45;;;22.90;99.90;;;;;;5065964;28;20041;-81
2023/04/23 12:15:17;;;;;;;2.13;0.15;;;23.60;99.90;;;;;;5053915;28;20033;-81
2023/04/23 12:17:50;;;;;;;0.03;0.03;;;22.70;99.90;;;;;;5052165;28;20075;-81
2023/04/23 12:20:22;;;;;;;2.53;0.52;;;22.70;99.90;;;;;;5054754;28;20087;-81
2023/04/23 12:22:47;;;;;;;1.25;0.80;;;22.70;99.90;;;;;;5073137;28;20044;-81
2023/04/23 12:25:13;;;;;;;0.00;0.00;;;22.00;99.90;;;;;;5052573;28;20128;-81
2023/04/23 12:27:41;;;;;;;4.22;0.65;;;21.80;99.90;;;;;;5053933;28;20056;-80
2023/04/23 12:30:08;;;;;;;0.45;0.35;;;22.10;99.90;;;;;;5056700;28;20154;-81
2023/04/23 12:32:34;;;;;;;0.20;0.17;;;22.30;99.90;;;;;;5074294;28;20044;-81
2023/04/23 12:35:00;;;;;;;0.30;0.30;;;22.20;99.90;;;;;;5055486;28;20502;-81
2023/04/23 12:37:29;;;;;;;0.22;0.22;;;21.80;99.90;;;;;;5052667;28;20053;-81
2023/04/23 12:39:58;;;;;;;0.10;0.00;;;21.50;99.90;;;;;;5054506;28;20162;-80
2023/04/23 12:42:24;;;;;;;0.10;0.10;;;20.90;99.90;;;;;;5054280;28;20048;-81
2023/04/23 12:44:50;;;;;;;0.00;0.00;;;20.50;99.90;;;;;;5068762;28;20075;-80
2023/04/23 12:47:18;;;;;;;0.45;0.38;;;20.10;99.90;;;;;;5072357;28;20044;-80
2023/04/23 12:49:51;;;;;;;0.13;0.13;;;20.10;99.90;;;;;;5070935;28;20125;-80
2023/04/23 12:52:17;;;;;;;0.00;0.00;;;20.20;99.90;;;;;;5055089;28;20092;-80
2023/04/23 12:54:46;;;;;;;0.00;0.00;;;20.40;99.90;;;;;;5062835;28;20041;-80